createdAt,value
2022-09-09T00:02:23.467Z,99.90
2022-09-09T00:07:25.244Z,99.90
2022-09-09T00:12:56.700Z,99.90
2022-09-09T00:18:25.491Z,99.90
2022-09-09T00:23:31.771Z,99.90
2022-09-09T00:28:42.495Z,99.90
2022-09-09T00:33:44.665Z,99.90
2022-09-09T00:38:53.475Z,99.90
2022-09-09T00:43:58.455Z,99.90
2022-09-09T00:49:21.271Z,99.90
2022-09-09T00:54:30.165Z,99.90
2022-09-09T00:59:41.159Z,99.90
2022-09-09T01:04:43.401Z,99.90
2022-09-09T01:10:00.445Z,99.90
2022-09-09T01:15:17.847Z,99.90
2022-09-09T01:20:26.812Z,99.90
2022-09-09T01:25:37.444Z,99.90
2022-09-09T01:30:41.673Z,99.90
2022-09-09T01:35:58.399Z,99.90
2022-09-09T01:41:00.163Z,99.90
2022-09-09T01:46:03.674Z,99.90
2022-09-09T01:51:05.877Z,99.90
2022-09-09T01:56:19.832Z,99.90
2022-09-09T02:01:33.625Z,99.90
2022-09-09T02:06:38.658Z,99.90
2022-09-09T02:11:42.481Z,99.90
2022-09-09T02:17:08.074Z,99.90
2022-09-09T02:22:10.328Z,99.90
2022-09-09T02:27:13.637Z,99.90
2022-09-09T02:32:18.647Z,99.90
2022-09-09T02:37:22.959Z,99.90
2022-09-09T02:42:25.004Z,99.90
2022-09-09T02:47:40.100Z,99.90
2022-09-09T02:52:53.631Z,99.90
2022-09-09T02:57:57.800Z,99.90
2022-09-09T03:03:00.584Z,99.90
2022-09-09T03:08:03.252Z,99.90
2022-09-09T03:13:06.369Z,99.90
2022-09-09T03:18:08.252Z,99.90
2022-09-09T03:23:14.976Z,99.90
2022-09-09T03:28:17.578Z,99.90
2022-09-09T03:33:19.366Z,99.90
2022-09-09T03:38:21.071Z,99.90
2022-09-09T03:43:23.511Z,99.90
2022-09-09T03:48:26.852Z,99.90
2022-09-09T03:53:29.795Z,99.90
2022-09-09T03:58:31.546Z,99.90
2022-09-09T04:03:33.468Z,99.90
2022-09-09T04:08:36.821Z,99.90
2022-09-09T04:13:40.194Z,99.90
2022-09-09T04:18:42.772Z,99.90
2022-09-09T04:23:44.520Z,99.90
2022-09-09T04:28:46.216Z,99.90
2022-09-09T04:33:48.060Z,99.90
2022-09-09T04:38:50.218Z,99.90
2022-09-09T04:43:53.268Z,99.90
2022-09-09T04:48:55.453Z,99.90
2022-09-09T04:53:57.141Z,99.90
2022-09-09T04:58:58.907Z,99.90
2022-09-09T05:04:00.656Z,99.90
2022-09-09T05:09:02.574Z,99.90
2022-09-09T05:14:04.891Z,99.90
2022-09-09T05:19:09.040Z,99.90
2022-09-09T05:24:10.979Z,99.90
2022-09-09T05:29:12.691Z,99.90
2022-09-09T05:34:14.410Z,99.90
2022-09-09T05:39:16.190Z,99.90
2022-09-09T05:44:17.923Z,99.90
2022-09-09T05:49:19.722Z,99.90
2022-09-09T05:54:21.515Z,99.90
2022-09-09T05:59:24.653Z,99.90
2022-09-09T06:04:26.359Z,99.90
2022-09-09T06:09:28.150Z,99.90
2022-09-09T06:14:29.891Z,99.90
2022-09-09T06:19:31.972Z,99.90
2022-09-09T06:24:34.037Z,99.90
2022-09-09T06:29:35.873Z,99.90
2022-09-09T06:34:37.732Z,99.90
2022-09-09T06:39:39.890Z,99.90
2022-09-09T06:44:41.688Z,99.90
2022-09-09T06:49:48.192Z,74.40
2022-09-09T06:54:50.208Z,59.20
2022-09-09T06:59:52.032Z,49.00
2022-09-09T07:04:53.751Z,45.20
2022-09-09T07:09:55.510Z,46.40
2022-09-09T07:14:57.284Z,41.00
2022-09-09T07:19:59.117Z,38.70
2022-09-09T07:25:00.855Z,38.10
2022-09-09T07:30:03.652Z,36.10
2022-09-09T07:35:05.855Z,37.20
2022-09-09T07:40:08.092Z,38.10
2022-09-09T07:45:09.890Z,40.10
2022-09-09T07:50:12.683Z,38.70
2022-09-09T07:55:14.586Z,37.40
2022-09-09T08:00:16.552Z,36.60
2022-09-09T08:05:19.265Z,39.20
2022-09-09T08:10:21.143Z,36.90
2022-09-09T08:15:22.872Z,32.70
2022-09-09T08:20:24.612Z,31.00
2022-09-09T08:25:26.407Z,32.30
2022-09-09T08:30:28.164Z,31.20
2022-09-09T08:35:33.541Z,32.30
2022-09-09T08:40:43.379Z,36.30
2022-09-09T08:46:06.807Z,35.70
2022-09-09T08:51:09.558Z,35.20
2022-09-09T08:56:39.672Z,35.40
2022-09-09T09:02:05.242Z,32.20
2022-09-09T09:07:22.137Z,33.60
2022-09-09T09:12:26.423Z,31.30
2022-09-09T09:17:32.413Z,31.70
2022-09-09T09:22:47.407Z,32.90
2022-09-09T09:28:01.648Z,34.70
2022-09-09T09:33:06.970Z,34.10
2022-09-09T09:43:54.941Z,34.30
2022-09-09T09:49:03.840Z,33.60
2022-09-09T09:54:31.134Z,34.50
2022-09-09T09:59:40.729Z,35.20
2022-09-09T10:04:42.794Z,36.50
2022-09-09T10:09:44.660Z,32.70
2022-09-09T10:15:07.937Z,39.70
2022-09-09T10:20:12.726Z,45.10
2022-09-09T10:25:31.212Z,51.30
2022-09-09T10:31:13.656Z,53.70
2022-09-09T10:36:20.260Z,54.70
2022-09-09T10:41:57.000Z,56.30
2022-09-09T10:47:02.142Z,55.20
2022-09-09T10:52:30.123Z,57.30
2022-09-09T10:57:33.043Z,56.20
2022-09-09T11:02:35.881Z,56.30
2022-09-09T11:07:48.896Z,57.00
2022-09-09T11:12:54.867Z,57.90
2022-09-09T11:18:02.802Z,58.00
2022-09-09T11:23:10.370Z,59.50
2022-09-09T11:28:32.217Z,59.20
2022-09-09T11:33:50.258Z,57.50
2022-09-09T11:38:59.062Z,57.80
2022-09-09T11:44:00.692Z,59.30
2022-09-09T11:49:05.766Z,58.10
2022-09-09T11:54:31.114Z,58.50
2022-09-09T11:59:34.149Z,57.80
2022-09-09T12:04:45.769Z,59.60
2022-09-09T12:10:09.160Z,58.70
2022-09-09T12:15:10.810Z,58.50
2022-09-09T12:20:37.020Z,58.20
2022-09-09T12:25:57.026Z,59.30
2022-09-09T12:31:22.486Z,57.80
2022-09-09T12:36:31.657Z,59.20
2022-09-09T12:41:33.390Z,58.90
2022-09-09T12:46:37.643Z,58.90
2022-09-09T12:51:39.518Z,59.60
2022-09-09T12:56:46.420Z,59.80
2022-09-09T13:02:00.123Z,59.50
2022-09-09T13:07:11.064Z,59.40
2022-09-09T13:12:19.772Z,59.10
2022-09-09T13:17:28.178Z,59.40
2022-09-09T13:22:36.818Z,60.20
2022-09-09T13:27:43.379Z,58.90
2022-09-09T13:32:45.107Z,59.60
2022-09-09T13:37:47.379Z,60.70
2022-09-09T13:42:52.276Z,60.50
2022-09-09T13:47:56.443Z,59.60
2022-09-09T13:53:00.033Z,60.40
2022-09-09T13:58:05.996Z,60.60
2022-09-09T14:03:08.574Z,57.40
2022-09-09T14:08:26.071Z,58.80
2022-09-09T14:13:27.856Z,58.00
2022-09-09T14:18:30.306Z,59.60
2022-09-09T14:23:32.846Z,60.50
2022-09-09T14:33:57.937Z,58.50
2022-09-09T14:39:00.009Z,59.40
2022-09-09T14:44:01.923Z,60.80
2022-09-09T14:49:03.863Z,59.80
2022-09-09T14:54:05.782Z,59.30
2022-09-09T14:59:07.724Z,61.90
2022-09-09T15:04:13.725Z,60.60
2022-09-09T15:09:16.545Z,60.00
2022-09-09T15:14:22.054Z,60.10
2022-09-09T15:19:27.005Z,59.40
2022-09-09T15:24:28.731Z,60.00
2022-09-09T15:29:30.422Z,59.70
2022-09-09T15:34:32.671Z,61.00
2022-09-09T15:39:38.575Z,61.20
2022-09-09T15:44:43.350Z,62.20
2022-09-09T15:49:45.099Z,63.80
2022-09-09T15:54:46.919Z,64.10
2022-09-09T15:59:49.239Z,64.90
2022-09-09T16:04:50.961Z,66.40
2022-09-09T16:09:53.847Z,68.60
2022-09-09T16:14:55.869Z,69.60
2022-09-09T16:19:58.634Z,75.00
2022-09-09T16:25:00.663Z,76.20
2022-09-09T16:30:02.450Z,76.70
2022-09-09T16:35:04.979Z,78.60
2022-09-09T16:40:07.480Z,80.70
2022-09-09T16:45:09.827Z,82.10
2022-09-09T16:50:11.536Z,88.10
2022-09-09T16:55:13.663Z,86.70
2022-09-09T17:00:17.536Z,87.60
2022-09-09T17:05:19.278Z,91.10
2022-09-09T17:10:20.994Z,93.30
2022-09-09T17:15:24.085Z,99.90
2022-09-09T17:20:26.388Z,99.90
2022-09-09T17:25:28.111Z,99.90
2022-09-09T17:30:29.904Z,99.90
2022-09-09T17:35:32.539Z,99.90
2022-09-09T17:40:34.279Z,99.90
2022-09-09T17:45:36.021Z,99.90
2022-09-09T17:50:38.300Z,99.90
2022-09-09T17:55:40.006Z,99.90
2022-09-09T18:00:42.071Z,99.90
2022-09-09T18:05:43.783Z,99.90
2022-09-09T18:10:55.743Z,99.90
2022-09-09T18:15:58.468Z,99.90
2022-09-09T18:21:07.570Z,99.90
2022-09-09T18:26:14.888Z,99.90
2022-09-09T18:31:19.165Z,99.90
2022-09-09T18:36:22.208Z,99.90
2022-09-09T18:41:25.753Z,99.90
2022-09-09T18:46:29.251Z,99.90
2022-09-09T18:51:33.448Z,99.90
2022-09-09T18:56:36.195Z,99.90
2022-09-09T19:01:38.769Z,99.90
2022-09-09T19:06:45.088Z,99.90
2022-09-09T19:11:46.856Z,99.90
2022-09-09T19:16:48.655Z,99.90
2022-09-09T19:21:51.696Z,99.90
2022-09-09T19:26:57.828Z,99.90
2022-09-09T19:37:23.725Z,99.90
2022-09-09T19:42:25.896Z,99.90
2022-09-09T19:47:27.768Z,99.90
2022-09-09T19:52:29.505Z,99.90
2022-09-09T19:57:31.440Z,99.90
2022-09-09T20:02:33.817Z,99.90
2022-09-09T20:07:35.591Z,99.90
2022-09-09T20:12:37.323Z,99.90
2022-09-09T20:17:39.060Z,99.90
2022-09-09T20:22:40.780Z,99.90
2022-09-09T20:27:42.788Z,99.90
2022-09-09T20:32:44.512Z,99.90
2022-09-09T20:37:46.924Z,99.90
2022-09-09T20:42:48.656Z,99.90
2022-09-09T20:47:50.843Z,99.90
2022-09-09T20:52:52.792Z,99.90
2022-09-09T20:57:54.519Z,99.90
2022-09-09T21:02:56.594Z,99.90
2022-09-09T21:07:59.126Z,99.90
2022-09-09T21:13:01.527Z,99.90
2022-09-09T21:18:03.424Z,99.90
2022-09-09T21:23:06.083Z,99.90
2022-09-09T21:28:08.816Z,99.90
2022-09-09T21:33:11.788Z,99.90
2022-09-09T21:38:16.245Z,99.90
2022-09-09T21:43:20.227Z,99.90
2022-09-09T21:48:23.742Z,99.90
2022-09-09T21:53:25.449Z,99.90
2022-09-09T21:58:27.272Z,99.90
2022-09-09T22:03:29.078Z,99.90
2022-09-09T22:08:30.894Z,99.90
2022-09-09T22:13:33.491Z,99.90
2022-09-09T22:18:36.467Z,99.90
2022-09-09T22:23:38.426Z,99.90
2022-09-09T22:28:40.306Z,99.90
2022-09-09T22:33:42.798Z,99.90
2022-09-09T22:38:44.502Z,99.90
2022-09-09T22:43:46.686Z,99.90
2022-09-09T22:48:48.428Z,99.90
2022-09-09T22:53:50.279Z,99.90
2022-09-09T22:58:56.269Z,99.90
2022-09-09T23:04:02.810Z,99.90
2022-09-09T23:09:04.774Z,99.90
2022-09-09T23:14:09.885Z,99.90
2022-09-09T23:19:15.918Z,99.90
2022-09-09T23:24:19.075Z,99.90
2022-09-09T23:29:21.632Z,99.90
2022-09-09T23:34:23.367Z,99.90
2022-09-09T23:39:25.104Z,99.90
2022-09-09T23:44:26.856Z,99.90
2022-09-09T23:49:28.866Z,99.90
2022-09-09T23:54:30.775Z,99.90
2022-09-09T23:59:32.590Z,99.90
